Time;durP1;ratioP1;P1;durP2;ratioP2;P2;SDS_P1;SDS_P2;PMS_P1;PMS_P2;Temp;Humidity;BMP_temperature;BMP_pressure;BME280_temperature;BME280_humidity;BME280_pressure;Samples;Min_cycle;Max_cycle;Signal;HPM_P1;HPM_P2
2022/12/08 00:01:28;;;;;;;33.17;20.63;;;21.60;99.90;;;;;;5039357;28;20037;-46
2022/12/08 00:03:54;;;;;;;31.27;19.90;;;21.60;99.90;;;;;;5017801;28;20126;-46
2022/12/08 00:09:22;;;;;;;27.98;18.83;;;21.60;99.90;;;;;;5052363;28;20021;-47
2022/12/08 00:11:49;;;;;;;29.92;20.30;;;21.60;99.90;;;;;;5051932;28;20029;-50
2022/12/08 00:14:15;;;;;;;26.58;18.35;;;21.60;99.90;;;;;;5038200;28;20056;-49
2022/12/08 00:16:41;;;;;;;28.73;19.50;;;21.50;99.90;;;;;;5052102;28;20118;-46
2022/12/08 00:19:07;;;;;;;30.25;19.25;;;21.60;99.90;;;;;;5051755;28;20479;-45
2022/12/08 00:21:33;;;;;;;26.25;17.10;;;21.60;99.90;;;;;;5052222;28;20025;-49
2022/12/08 00:23:58;;;;;;;26.42;17.38;;;21.60;99.90;;;;;;5034150;28;20082;-49
2022/12/08 00:26:24;;;;;;;25.75;17.92;;;21.60;99.90;;;;;;5051097;28;20040;-48
2022/12/08 00:28:50;;;;;;;24.63;17.15;;;21.60;99.90;;;;;;5051928;28;20032;-48
2022/12/08 00:31:16;;;;;;;28.30;17.02;;;21.60;99.90;;;;;;5051781;28;20037;-49
2022/12/08 00:33:42;;;;;;;23.40;16.15;;;21.60;99.90;;;;;;5051805;28;20082;-47
2022/12/08 00:36:09;;;;;;;26.92;16.20;;;21.50;99.90;;;;;;5051976;28;20021;-46
2022/12/08 00:38:36;;;;;;;22.60;15.60;;;21.50;99.90;;;;;;5051901;28;20071;-46
2022/12/08 00:41:05;;;;;;;21.83;16.33;;;21.50;99.90;;;;;;5051814;28;20111;-46
2022/12/08 00:43:31;;;;;;;26.42;16.35;;;21.60;99.90;;;;;;5052047;28;20025;-47
2022/12/08 00:45:57;;;;;;;23.10;15.75;;;21.50;99.90;;;;;;5051865;28;20021;-46
2022/12/08 00:48:23;;;;;;;24.92;15.93;;;21.50;99.90;;;;;;5039634;28;20087;-47
2022/12/08 00:50:48;;;;;;;25.42;15.35;;;21.50;99.90;;;;;;5043441;28;20108;-47
2022/12/08 00:53:14;;;;;;;20.85;14.25;;;21.50;99.90;;;;;;5033863;28;20021;-47
2022/12/08 00:55:41;;;;;;;23.63;15.30;;;21.60;99.90;;;;;;5051529;28;20025;-47
2022/12/08 00:58:07;;;;;;;21.85;14.02;;;21.60;99.90;;;;;;5051524;28;20053;-48
2022/12/08 01:00:32;;;;;;;21.45;14.25;;;21.50;99.90;;;;;;5052292;28;20079;-46
2022/12/08 01:02:58;;;;;;;20.15;13.77;;;21.50;99.90;;;;;;5029380;28;20021;-45
2022/12/08 01:05:24;;;;;;;19.42;13.68;;;21.50;99.90;;;;;;5021401;28;20032;-51
2022/12/08 01:07:50;;;;;;;20.92;13.75;;;21.50;99.90;;;;;;5051795;28;20383;-51
2022/12/08 01:10:16;;;;;;;21.08;14.18;;;21.50;99.90;;;;;;5051326;28;20128;-49
2022/12/08 01:12:42;;;;;;;20.30;13.68;;;21.50;99.90;;;;;;5051193;28;20471;-50
2022/12/08 01:15:08;;;;;;;20.55;14.00;;;21.50;99.90;;;;;;5051417;28;20031;-52
2022/12/08 01:17:35;;;;;;;21.52;13.70;;;21.50;99.90;;;;;;5034083;28;20014;-52
2022/12/08 01:20:01;;;;;;;23.25;13.63;;;21.50;99.90;;;;;;5051347;28;20047;-50
2022/12/08 01:22:27;;;;;;;18.42;13.27;;;21.50;99.90;;;;;;5033626;28;20028;-52
2022/12/08 01:24:53;;;;;;;18.40;12.75;;;21.50;99.90;;;;;;5051359;28;20390;-51
2022/12/08 01:27:18;;;;;;;17.23;12.73;;;21.50;99.90;;;;;;5042347;28;20022;-50
2022/12/08 01:29:44;;;;;;;19.15;12.75;;;21.50;99.90;;;;;;5046289;28;20029;-50
2022/12/08 01:32:10;;;;;;;18.42;12.82;;;21.50;99.90;;;;;;5051423;28;20025;-48
2022/12/08 01:34:36;;;;;;;17.65;12.45;;;21.50;99.90;;;;;;5051276;28;20040;-47
2022/12/08 01:37:01;;;;;;;19.20;12.48;;;21.40;99.90;;;;;;5051617;28;20021;-47
2022/12/08 01:39:28;;;;;;;18.77;12.85;;;21.50;99.90;;;;;;5043885;28;20031;-45
2022/12/08 01:41:54;;;;;;;18.10;11.03;;;21.40;99.90;;;;;;5014089;28;20022;-47
2022/12/08 01:44:20;;;;;;;16.25;11.40;;;21.40;99.90;;;;;;5040152;28;20533;-45
2022/12/08 01:46:47;;;;;;;19.38;11.60;;;21.50;99.90;;;;;;5054770;28;20434;-45
2022/12/08 01:49:32;;;;;;;17.33;11.68;;;21.40;99.90;;;;;;5054643;28;20021;-45
2022/12/08 01:52:33;;;;;;;18.65;11.07;;;21.50;99.90;;;;;;5036943;28;20025;-45
2022/12/08 01:55:11;;;;;;;16.02;11.13;;;21.40;99.90;;;;;;4985120;28;20141;-45
2022/12/08 01:57:43;;;;;;;16.73;11.70;;;21.40;99.90;;;;;;5025406;28;20056;-46
2022/12/08 02:00:13;;;;;;;16.77;10.77;;;21.40;99.90;;;;;;5055050;28;20486;-45
2022/12/08 02:02:59;;;;;;;14.73;10.30;;;21.40;99.90;;;;;;5054445;28;20025;-45
2022/12/08 02:05:28;;;;;;;16.08;10.25;;;21.40;99.90;;;;;;5029711;28;20036;-55
2022/12/08 02:07:55;;;;;;;16.95;11.35;;;21.40;99.90;;;;;;5028864;28;20040;-45
2022/12/08 02:10:22;;;;;;;;;;;21.40;99.90;;;;;;5054850;28;20107;-45
2022/12/08 02:12:51;;;;;;;15.20;10.25;;;21.40;99.90;;;;;;5036114;28;19904;-45
2022/12/08 02:15:17;;;;;;;14.65;10.25;;;21.40;99.90;;;;;;5054427;28;20017;-46
2022/12/08 02:18:17;;;;;;;14.68;11.18;;;21.40;99.90;;;;;;5054194;28;20731;-46
2022/12/08 02:21:00;;;;;;;14.38;10.27;;;21.40;99.90;;;;;;5054181;28;20025;-46
2022/12/08 02:23:32;;;;;;;16.73;11.02;;;21.40;99.90;;;;;;5053955;28;20086;-46
2022/12/08 02:26:18;;;;;;;12.50;9.02;;;21.40;99.90;;;;;;5039793;28;20378;-46
2022/12/08 02:28:50;;;;;;;16.77;10.35;;;21.40;99.90;;;;;;5013669;28;20033;-44
2022/12/08 02:31:33;;;;;;;15.90;9.20;;;21.40;99.90;;;;;;5013396;28;20029;-45
2022/12/08 02:34:16;;;;;;;12.82;9.20;;;21.40;99.90;;;;;;5013267;28;20026;-45
2022/12/08 02:37:11;;;;;;;13.90;8.75;;;21.30;99.90;;;;;;5030076;28;20032;-46
2022/12/08 02:40:06;;;;;;;12.35;8.75;;;21.30;99.90;;;;;;5053893;28;20021;-46
2022/12/08 02:42:40;;;;;;;13.20;10.00;;;21.30;99.90;;;;;;5039983;28;20025;-46
2022/12/08 02:45:17;;;;;;;12.48;8.13;;;21.30;99.90;;;;;;5028319;28;20058;-46
2022/12/08 02:47:44;;;;;;;16.70;9.07;;;21.30;99.90;;;;;;5013888;28;20034;-47
2022/12/08 02:50:10;;;;;;;13.95;8.60;;;21.30;99.90;;;;;;5050849;28;20108;-46
2022/12/08 02:52:42;;;;;;;12.60;7.97;;;21.30;99.90;;;;;;5053833;28;20036;-46
2022/12/08 02:55:36;;;;;;;13.65;8.90;;;21.30;99.90;;;;;;5053946;28;20387;-46
2022/12/08 02:58:02;;;;;;;13.32;8.90;;;21.30;99.90;;;;;;5053803;28;20017;-46
2022/12/08 03:00:47;;;;;;;10.00;7.65;;;21.30;99.90;;;;;;5113291;22;20051;-48
2022/12/08 03:03:38;;;;;;;10.15;7.43;;;21.30;99.90;;;;;;5073132;28;20389;-47
2022/12/08 03:06:29;;;;;;;12.18;8.15;;;21.30;99.90;;;;;;5073654;28;20060;-47
2022/12/08 03:09:02;;;;;;;10.65;7.30;;;21.30;99.90;;;;;;5059358;28;20072;-47
2022/12/08 03:11:27;;;;;;;11.52;8.40;;;21.30;99.90;;;;;;5072986;28;20096;-47
2022/12/08 03:14:00;;;;;;;11.88;8.70;;;21.30;99.90;;;;;;5055305;28;20051;-46
2022/12/08 03:16:28;;;;;;;9.82;7.25;;;21.30;99.90;;;;;;5073221;28;20024;-46
2022/12/08 03:19:33;;;;;;;11.27;7.45;;;21.30;99.90;;;;;;5072932;28;20016;-46
2022/12/08 03:22:03;;;;;;;10.38;7.18;;;21.30;99.90;;;;;;5022445;28;20185;-47
2022/12/08 03:24:42;;;;;;;10.63;7.22;;;21.30;99.90;;;;;;5073458;28;20033;-48
2022/12/08 03:27:15;;;;;;;10.85;7.72;;;21.30;99.90;;;;;;5072230;28;20083;-46
2022/12/08 03:29:41;;;;;;;9.93;7.07;;;21.30;99.90;;;;;;5072875;28;20496;-46
2022/12/08 03:32:29;;;;;;;10.32;7.07;;;21.30;99.90;;;;;;5073010;28;20028;-46
2022/12/08 03:34:57;;;;;;;8.95;6.47;;;21.30;99.90;;;;;;5072839;28;20021;-46
2022/12/08 03:37:25;;;;;;;10.02;7.05;;;21.30;99.90;;;;;;5069004;28;20041;-47
2022/12/08 03:39:51;;;;;;;;;;;21.30;99.90;;;;;;5063632;28;20392;-46
2022/12/08 03:42:16;;;;;;;10.70;7.35;;;21.30;99.90;;;;;;5072708;28;19904;-46
2022/12/08 03:44:42;;;;;;;10.38;6.75;;;21.30;99.90;;;;;;5071259;28;20047;-46
2022/12/08 03:47:08;;;;;;;12.23;7.22;;;21.30;99.90;;;;;;5072439;28;20017;-46
2022/12/08 03:49:34;;;;;;;8.52;5.82;;;21.30;99.90;;;;;;5072844;28;20382;-46
2022/12/08 03:51:59;;;;;;;8.65;6.32;;;21.30;99.90;;;;;;5072637;28;20442;-46
2022/12/08 03:54:25;;;;;;;9.48;6.18;;;21.30;99.90;;;;;;5072387;28;20037;-47
2022/12/08 03:56:51;;;;;;;12.13;6.38;;;21.30;99.90;;;;;;5054650;28;20021;-46
2022/12/08 04:01:45;;;;;;;8.60;5.63;;;21.20;99.90;;;;;;5029068;28;20057;-45
2022/12/08 04:04:11;;;;;;;10.38;6.38;;;21.20;99.90;;;;;;5032660;28;20025;-45
2022/12/08 04:06:37;;;;;;;7.95;5.68;;;21.20;99.90;;;;;;5032804;28;20505;-45
2022/12/08 04:09:04;;;;;;;8.13;5.60;;;21.20;99.90;;;;;;5032863;28;20017;-45
2022/12/08 04:11:29;;;;;;;8.90;5.63;;;21.20;99.90;;;;;;5031859;28;20036;-45
2022/12/08 04:13:55;;;;;;;9.80;6.03;;;21.20;99.90;;;;;;5032600;28;20033;-45
2022/12/08 04:16:23;;;;;;;13.57;5.97;;;21.20;99.90;;;;;;5032579;28;20027;-45
2022/12/08 04:18:49;;;;;;;10.05;5.82;;;21.20;99.90;;;;;;5032800;28;20434;-46
2022/12/08 04:21:15;;;;;;;8.90;5.35;;;21.20;99.90;;;;;;5032632;28;20451;-46
2022/12/08 04:23:42;;;;;;;9.48;5.75;;;21.20;99.90;;;;;;5032442;28;20119;-45
2022/12/08 04:26:08;;;;;;;10.82;5.63;;;21.20;99.90;;;;;;5032442;28;20037;-45
2022/12/08 04:28:34;;;;;;;12.35;6.07;;;21.20;99.90;;;;;;5014808;28;20097;-46
2022/12/08 04:31:01;;;;;;;8.20;5.57;;;21.20;99.90;;;;;;5032367;28;20049;-44
2022/12/08 04:33:27;;;;;;;10.85;6.10;;;21.20;99.90;;;;;;5032341;28;20040;-45
2022/12/08 04:35:53;;;;;;;8.48;5.40;;;21.20;99.90;;;;;;5032290;28;20025;-45
2022/12/08 04:38:19;;;;;;;9.45;5.57;;;21.20;99.90;;;;;;5032244;28;20061;-45
2022/12/08 04:40:45;;;;;;;9.77;6.13;;;21.20;99.90;;;;;;5032247;28;20457;-45
2022/12/08 04:43:11;;;;;;;6.70;5.03;;;21.20;99.90;;;;;;5014305;28;20121;-45
2022/12/08 04:45:39;;;;;;;8.70;5.65;;;21.20;99.90;;;;;;5032339;28;20116;-45
2022/12/08 04:48:05;;;;;;;8.82;6.30;;;21.10;99.90;;;;;;5032174;28;20096;-45
2022/12/08 04:50:31;;;;;;;8.32;5.47;;;21.10;99.90;;;;;;5032220;28;20124;-45
2022/12/08 04:52:57;;;;;;;7.90;5.38;;;21.10;99.90;;;;;;5032174;28;20371;-45
2022/12/08 04:55:23;;;;;;;8.48;5.63;;;21.10;99.90;;;;;;5032102;28;20071;-46
2022/12/08 04:57:49;;;;;;;9.18;5.53;;;21.10;99.90;;;;;;5032029;28;20076;-45
2022/12/08 05:00:15;;;;;;;7.40;5.22;;;21.10;99.90;;;;;;5032435;28;20127;-46
2022/12/08 05:02:41;;;;;;;8.90;5.50;;;21.10;99.90;;;;;;5032443;28;20028;-45
2022/12/08 05:05:07;;;;;;;7.32;5.38;;;21.10;99.90;;;;;;5032134;28;20034;-45
2022/12/08 05:07:33;;;;;;;7.22;5.15;;;21.10;99.90;;;;;;5031958;28;20025;-45
2022/12/08 05:09:59;;;;;;;6.70;5.03;;;21.10;99.90;;;;;;5031984;28;20094;-45
2022/12/08 05:12:24;;;;;;;8.50;5.45;;;21.10;99.90;;;;;;5032312;28;20522;-45
2022/12/08 05:14:50;;;;;;;7.38;5.32;;;21.10;99.90;;;;;;5035962;28;20029;-45
2022/12/08 05:17:17;;;;;;;9.88;5.10;;;21.10;99.90;;;;;;5035767;28;20032;-45
2022/12/08 05:19:43;;;;;;;6.88;5.05;;;21.10;99.90;;;;;;5035855;28;20032;-45
2022/12/08 05:22:10;;;;;;;6.75;5.25;;;21.10;99.90;;;;;;5035968;28;20039;-45
2022/12/08 05:24:36;;;;;;;7.28;5.25;;;21.10;99.90;;;;;;5018454;28;20041;-45
2022/12/08 05:27:01;;;;;;;8.60;5.00;;;21.10;99.90;;;;;;5035623;28;20037;-45
2022/12/08 05:29:27;;;;;;;6.85;4.53;;;21.00;99.90;;;;;;5035600;28;20413;-45
2022/12/08 05:31:53;;;;;;;8.30;5.30;;;21.00;99.90;;;;;;5035618;28;20025;-45
2022/12/08 05:34:19;;;;;;;8.25;5.05;;;21.00;99.90;;;;;;5035524;28;20026;-45
2022/12/08 05:36:45;;;;;;;8.25;4.50;;;21.00;99.90;;;;;;5035469;28;20017;-45
2022/12/08 05:39:12;;;;;;;8.02;4.60;;;21.00;99.90;;;;;;5035574;28;20024;-45
2022/12/08 05:41:38;;;;;;;7.57;4.65;;;21.00;99.90;;;;;;5018021;28;20033;-45
2022/12/08 05:44:04;;;;;;;9.10;5.18;;;21.00;99.90;;;;;;5035198;28;20033;-45
2022/12/08 05:46:30;;;;;;;7.22;4.65;;;21.00;99.90;;;;;;5035427;28;20033;-45
2022/12/08 05:48:57;;;;;;;9.68;5.47;;;21.00;99.90;;;;;;5035281;28;20025;-45
2022/12/08 05:51:23;;;;;;;7.30;4.68;;;21.00;99.90;;;;;;5017360;28;20060;-45
2022/12/08 05:53:51;;;;;;;7.22;4.43;;;21.00;99.90;;;;;;5035261;28;20033;-45
2022/12/08 05:56:18;;;;;;;7.35;4.63;;;21.00;99.90;;;;;;5035040;28;20167;-45
2022/12/08 05:58:44;;;;;;;6.72;4.45;;;21.00;99.90;;;;;;5035074;28;20034;-45
2022/12/08 06:01:28;;;;;;;6.95;4.90;;;20.90;99.90;;;;;;5035230;28;20069;-45
2022/12/08 06:03:54;;;;;;;5.63;4.07;;;21.00;99.90;;;;;;5034857;28;20038;-45
2022/12/08 06:06:20;;;;;;;7.65;5.13;;;20.90;99.90;;;;;;5034921;28;20372;-45
2022/12/08 06:08:46;;;;;;;8.00;4.40;;;21.00;99.90;;;;;;5033667;28;20548;-45
2022/12/08 06:11:38;;;;;;;6.85;4.30;;;21.00;99.90;;;;;;5034959;28;20030;-45
2022/12/08 06:14:04;;;;;;;6.38;4.97;;;21.00;99.90;;;;;;5032862;28;20516;-45
2022/12/08 06:16:30;;;;;;;8.75;4.60;;;20.90;99.90;;;;;;5034762;28;20029;-45
2022/12/08 06:18:56;;;;;;;5.80;4.18;;;20.90;99.90;;;;;;5034492;28;20030;-46
2022/12/08 06:21:22;;;;;;;7.93;4.70;;;20.90;99.90;;;;;;5034571;28;20072;-45
2022/12/08 06:23:50;;;;;;;7.40;4.40;;;20.90;99.90;;;;;;5033904;28;20057;-45
2022/12/08 06:26:16;;;;;;;7.53;4.35;;;20.90;99.90;;;;;;5034317;28;20414;-45
2022/12/08 06:28:42;;;;;;;6.75;4.45;;;20.90;99.90;;;;;;5017147;28;20026;-46
2022/12/08 06:31:16;;;;;;;6.40;4.00;;;20.90;99.90;;;;;;5034683;28;20033;-45
2022/12/08 06:33:42;;;;;;;8.90;6.28;;;20.90;99.90;;;;;;5033191;28;20029;-45
2022/12/08 06:36:10;;;;;;;6.03;4.40;;;20.90;99.90;;;;;;5034490;28;20120;-45
2022/12/08 06:38:36;;;;;;;6.93;4.20;;;20.90;99.90;;;;;;5016941;28;20026;-45
2022/12/08 06:41:02;;;;;;;8.40;4.78;;;20.90;99.90;;;;;;5034328;28;20021;-45
2022/12/08 06:43:28;;;;;;;7.15;4.57;;;20.90;99.90;;;;;;5034392;28;20076;-45
2022/12/08 06:45:54;;;;;;;8.93;4.32;;;20.90;99.90;;;;;;5034149;28;20053;-45
2022/12/08 06:48:20;;;;;;;7.78;4.05;;;20.90;99.90;;;;;;5034050;28;20052;-45
2022/12/08 06:50:45;;;;;;;5.88;4.40;;;20.90;99.90;;;;;;5034250;28;20049;-45
2022/12/08 06:53:13;;;;;;;6.03;4.18;;;20.90;99.90;;;;;;5034341;28;20047;-46
2022/12/08 06:55:50;;;;;;;8.30;4.07;;;20.90;99.90;;;;;;5034143;28;20411;-45
2022/12/08 06:58:15;;;;;;;7.13;4.43;;;20.90;99.90;;;;;;5033937;28;20586;-47
2022/12/08 07:00:42;;;;;;;5.38;3.55;;;20.90;99.90;;;;;;5033939;28;20128;-46
2022/12/08 07:03:08;;;;;;;7.68;3.78;;;20.80;99.90;;;;;;5033825;28;20025;-45
2022/12/08 07:05:35;;;;;;;6.82;4.22;;;20.80;99.90;;;;;;5033705;28;20038;-46
2022/12/08 07:08:01;;;;;;;6.83;4.33;;;20.80;99.90;;;;;;5016021;28;20079;-46
2022/12/08 07:10:27;;;;;;;6.32;3.80;;;20.80;99.90;;;;;;5033674;28;20735;-46
2022/12/08 07:12:53;;;;;;;8.38;3.90;;;20.90;99.90;;;;;;5015884;28;20155;-45
2022/12/08 07:15:19;;;;;;;6.28;3.95;;;20.80;99.90;;;;;;5033567;28;20026;-45
2022/12/08 07:17:45;;;;;;;6.00;3.83;;;20.80;99.90;;;;;;5033805;28;20379;-46
2022/12/08 07:20:11;;;;;;;6.32;3.78;;;20.80;99.90;;;;;;5032525;28;20124;-46
2022/12/08 07:22:37;;;;;;;6.55;3.95;;;20.80;99.90;;;;;;5015718;28;20026;-46
2022/12/08 07:25:04;;;;;;;6.50;3.67;;;20.80;99.90;;;;;;5033457;28;20108;-45
2022/12/08 07:27:30;;;;;;;7.65;4.38;;;20.80;99.90;;;;;;5032127;28;20024;-46
2022/12/08 07:29:56;;;;;;;5.32;4.22;;;20.80;99.90;;;;;;5015688;28;20096;-45
2022/12/08 07:32:22;;;;;;;6.75;3.42;;;20.80;99.90;;;;;;5033318;28;20033;-46
2022/12/08 07:34:48;;;;;;;5.38;3.78;;;20.80;99.90;;;;;;5033171;28;20021;-45
2022/12/08 07:37:13;;;;;;;4.80;3.70;;;20.80;99.90;;;;;;5033297;28;20037;-45
2022/12/08 07:39:39;;;;;;;5.63;3.97;;;20.80;99.90;;;;;;5033233;28;20025;-45
2022/12/08 07:42:05;;;;;;;6.95;3.97;;;20.80;99.90;;;;;;5033130;28;20037;-45
2022/12/08 07:44:31;;;;;;;7.85;4.45;;;20.80;99.90;;;;;;5032986;28;20049;-45
2022/12/08 07:46:56;;;;;;;6.22;3.85;;;20.80;99.90;;;;;;5032907;28;20026;-46
2022/12/08 07:49:22;;;;;;;7.18;3.78;;;20.80;99.90;;;;;;5033016;28;20041;-45
2022/12/08 07:51:48;;;;;;;8.75;3.80;;;20.80;99.90;;;;;;5032867;28;20064;-45
2022/12/08 07:54:14;;;;;;;7.25;3.92;;;20.80;99.90;;;;;;5033106;28;20021;-45
2022/12/08 07:56:40;;;;;;;5.68;3.97;;;20.80;99.90;;;;;;5032947;28;20364;-45
2022/12/08 07:59:05;;;;;;;8.57;4.25;;;20.80;99.90;;;;;;5032744;28;20364;-45
2022/12/08 08:01:34;;;;;;;7.78;4.30;;;20.80;99.90;;;;;;5032806;28;20053;-44
2022/12/08 08:04:03;;;;;;;7.43;4.10;;;20.80;99.90;;;;;;5032739;28;20479;-46
2022/12/08 08:06:31;;;;;;;8.73;5.07;;;20.80;99.90;;;;;;5032600;28;20037;-45
2022/12/08 08:08:56;;;;;;;10.05;4.47;;;20.80;99.90;;;;;;5032748;28;20493;-45
2022/12/08 08:11:22;;;;;;;6.38;4.20;;;20.80;99.90;;;;;;5032504;28;20144;-46
2022/12/08 08:13:49;;;;;;;7.30;4.72;;;20.80;99.90;;;;;;5032785;28;20152;-46
2022/12/08 08:16:15;;;;;;;7.78;4.45;;;20.80;99.90;;;;;;5032758;28;20028;-45
2022/12/08 08:18:41;;;;;;;12.00;4.82;;;20.80;99.90;;;;;;5032579;28;20029;-46
2022/12/08 08:21:07;;;;;;;6.35;4.30;;;20.80;99.90;;;;;;5032515;28;20017;-46
2022/12/08 08:23:33;;;;;;;6.57;4.50;;;20.80;99.90;;;;;;5014637;28;20471;-45
2022/12/08 08:26:03;;;;;;;7.43;4.57;;;20.80;99.90;;;;;;5032389;28;20038;-45
2022/12/08 08:28:29;;;;;;;9.65;4.65;;;20.80;99.90;;;;;;5032348;28;20022;-46
2022/12/08 08:30:55;;;;;;;7.95;4.60;;;20.80;99.90;;;;;;5032344;28;20029;-45
2022/12/08 08:33:21;;;;;;;10.48;5.88;;;20.80;99.90;;;;;;5032251;28;20052;-45
2022/12/08 08:35:47;;;;;;;12.15;5.72;;;20.80;99.90;;;;;;5032385;28;20517;-46
2022/12/08 08:38:13;;;;;;;8.55;5.53;;;20.80;99.90;;;;;;5032238;28;20368;-46
2022/12/08 08:40:39;;;;;;;8.68;5.03;;;20.80;99.90;;;;;;5032146;28;20060;-46
2022/12/08 08:43:05;;;;;;;9.05;4.47;;;20.80;99.90;;;;;;5014403;28;20061;-46
2022/12/08 08:45:32;;;;;;;8.13;4.57;;;20.80;99.90;;;;;;5032004;28;20092;-45
2022/12/08 08:47:58;;;;;;;6.80;4.32;;;20.80;99.90;;;;;;5031793;28;20378;-46
2022/12/08 08:50:24;;;;;;;7.47;4.38;;;20.80;99.90;;;;;;5032164;28;20112;-46
2022/12/08 08:52:50;;;;;;;7.93;4.57;;;20.80;99.90;;;;;;5032458;28;20121;-45
2022/12/08 08:55:16;;;;;;;8.23;4.90;;;20.80;99.90;;;;;;5030868;28;20029;-45
2022/12/08 08:57:42;;;;;;;8.82;4.40;;;20.80;99.90;;;;;;5032010;28;20025;-45
2022/12/08 09:00:09;;;;;;;8.43;4.45;;;20.80;99.90;;;;;;5031689;28;20050;-45
2022/12/08 09:02:35;;;;;;;7.47;4.40;;;20.80;99.90;;;;;;5031992;28;20033;-45
2022/12/08 09:05:02;;;;;;;10.27;5.63;;;20.80;99.90;;;;;;5032016;28;20368;-46
2022/12/08 09:07:28;;;;;;;7.82;4.88;;;20.80;99.90;;;;;;5031784;28;20259;-46
2022/12/08 09:09:54;;;;;;;8.70;5.45;;;20.80;99.90;;;;;;5031836;28;20033;-46
2022/12/08 09:12:20;;;;;;;7.25;5.00;;;20.80;99.90;;;;;;5031894;28;20014;-45
2022/12/08 09:14:46;;;;;;;8.50;5.35;;;20.80;99.90;;;;;;5031975;28;20021;-45
2022/12/08 09:17:12;;;;;;;8.93;5.65;;;20.80;99.90;;;;;;5031781;28;20789;-46
2022/12/08 09:19:37;;;;;;;8.70;5.95;;;20.80;99.90;;;;;;5031792;28;20021;-47
2022/12/08 09:22:04;;;;;;;10.25;6.57;;;20.70;99.90;;;;;;5031924;28;20433;-46
2022/12/08 09:24:30;;;;;;;8.10;5.93;;;20.80;99.90;;;;;;5031446;28;20052;-46
2022/12/08 09:26:55;;;;;;;10.30;6.50;;;20.80;99.90;;;;;;5031716;28;20021;-46
2022/12/08 09:29:21;;;;;;;10.70;6.78;;;20.80;99.90;;;;;;5031913;28;20056;-46
2022/12/08 09:31:47;;;;;;;9.93;6.93;;;20.80;99.90;;;;;;5032083;28;20055;-46
2022/12/08 09:34:14;;;;;;;10.18;6.32;;;20.80;99.90;;;;;;5031627;28;20028;-46
2022/12/08 09:36:40;;;;;;;11.18;6.05;;;20.80;99.90;;;;;;5031551;28;20474;-46
2022/12/08 09:39:06;;;;;;;9.30;6.00;;;20.80;99.90;;;;;;5031553;28;20034;-46
2022/12/08 09:41:35;;;;;;;11.50;6.55;;;20.80;99.90;;;;;;5031696;28;20037;-46
2022/12/08 09:44:34;;;;;;;11.43;6.28;;;20.80;99.90;;;;;;5031455;28;20167;-46
2022/12/08 09:47:04;;;;;;;14.98;7.60;;;20.80;99.90;;;;;;5031446;28;20033;-46
2022/12/08 09:49:42;;;;;;;10.30;6.53;;;20.80;99.90;;;;;;5013725;28;20025;-45
2022/12/08 09:52:28;;;;;;;12.65;6.72;;;20.80;99.90;;;;;;5031518;28;20043;-46
2022/12/08 09:54:59;;;;;;;11.43;7.13;;;20.80;99.90;;;;;;5031440;28;20029;-45
2022/12/08 09:57:25;;;;;;;13.98;7.05;;;20.80;99.90;;;;;;5031437;28;20104;-45
2022/12/08 09:59:56;;;;;;;11.75;7.45;;;20.80;99.90;;;;;;5032445;28;20072;-45
2022/12/08 10:02:29;;;;;;;9.98;6.65;;;20.80;99.90;;;;;;5035092;28;20022;-45
2022/12/08 10:04:56;;;;;;;8.63;6.43;;;20.80;99.90;;;;;;5034679;28;20037;-45
2022/12/08 10:07:44;;;;;;;8.02;6.45;;;20.80;99.90;;;;;;5035087;28;20471;-45
2022/12/08 10:10:31;;;;;;;9.65;6.65;;;20.80;99.90;;;;;;5034819;28;20079;-45
2022/12/08 10:13:04;;;;;;;10.65;6.75;;;20.70;99.90;;;;;;5016992;28;20053;-47
2022/12/08 10:15:39;;;;;;;13.00;7.82;;;20.80;99.90;;;;;;5034822;28;20112;-47
2022/12/08 10:18:22;;;;;;;11.32;6.55;;;20.80;99.90;;;;;;5034789;28;20124;-46
2022/12/08 10:20:50;;;;;;;10.43;7.10;;;20.70;99.90;;;;;;5034824;28;20021;-46
2022/12/08 10:23:24;;;;;;;13.35;6.88;;;20.70;99.90;;;;;;5016923;28;20482;-46
2022/12/08 10:25:55;;;;;;;11.43;7.22;;;20.70;99.90;;;;;;5034486;28;20561;-46
2022/12/08 10:28:21;;;;;;;11.82;7.03;;;20.70;99.90;;;;;;5034699;28;20025;-46
2022/12/08 10:30:47;;;;;;;15.95;8.30;;;20.80;99.90;;;;;;5034441;28;20105;-47
2022/12/08 10:33:18;;;;;;;9.65;6.95;;;20.80;99.90;;;;;;5034190;28;20025;-46
2022/12/08 10:35:57;;;;;;;12.05;7.50;;;20.80;99.90;;;;;;5034316;28;20029;-47
2022/12/08 10:38:26;;;;;;;13.55;7.85;;;20.80;99.90;;;;;;5034542;28;20096;-47
2022/12/08 10:40:59;;;;;;;10.80;7.10;;;20.80;99.90;;;;;;5034482;28;20022;-47
2022/12/08 10:43:26;;;;;;;8.93;6.88;;;20.80;99.90;;;;;;5034358;28;20028;-46
2022/12/08 10:45:53;;;;;;;11.00;7.50;;;20.80;99.90;;;;;;5032999;28;20179;-47
2022/12/08 10:48:20;;;;;;;10.52;6.70;;;20.80;99.90;;;;;;5032785;28;20121;-46
2022/12/08 10:50:51;;;;;;;15.73;7.72;;;20.80;99.90;;;;;;5034113;28;20533;-46
2022/12/08 10:53:26;;;;;;;10.70;7.07;;;20.80;99.90;;;;;;5034013;28;20483;-46
2022/12/08 10:56:06;;;;;;;9.82;6.55;;;20.80;99.90;;;;;;5034268;28;20075;-46
2022/12/08 10:58:41;;;;;;;11.15;6.60;;;20.80;99.90;;;;;;5034112;28;20022;-46
2022/12/08 11:01:24;;;;;;;10.68;6.68;;;20.80;99.90;;;;;;5033702;28;20045;-46
2022/12/08 11:03:54;;;;;;;12.48;6.78;;;20.80;99.90;;;;;;5033780;28;20017;-46
2022/12/08 11:06:32;;;;;;;11.55;7.57;;;20.80;99.90;;;;;;5033786;28;20033;-46
2022/12/08 11:09:05;;;;;;;12.25;7.32;;;20.80;99.90;;;;;;5033849;28;20106;-46
2022/12/08 11:11:44;;;;;;;9.95;6.40;;;20.80;99.90;;;;;;5033130;28;20028;-46
2022/12/08 11:14:23;;;;;;;18.35;10.07;;;20.80;99.90;;;;;;5033722;28;20064;-46
2022/12/08 11:16:52;;;;;;;11.52;6.60;;;20.80;99.90;;;;;;5015839;28;20053;-46
2022/12/08 11:19:19;;;;;;;9.50;6.78;;;20.80;99.90;;;;;;5015544;28;20037;-46
2022/12/08 11:21:46;;;;;;;10.45;6.90;;;20.80;99.90;;;;;;5033366;28;20035;-46
2022/12/08 11:24:24;;;;;;;11.15;7.20;;;20.80;99.90;;;;;;5033320;28;20108;-45
2022/12/08 11:27:01;;;;;;;10.35;6.32;;;20.80;99.90;;;;;;5033423;28;20022;-46
2022/12/08 11:29:29;;;;;;;11.82;7.05;;;20.80;99.90;;;;;;5033596;28;20029;-46
2022/12/08 11:32:03;;;;;;;10.25;7.03;;;20.80;99.90;;;;;;5033367;28;20056;-46
2022/12/08 11:34:43;;;;;;;10.30;6.63;;;20.80;99.90;;;;;;5033222;28;20100;-46
2022/12/08 11:37:25;;;;;;;10.52;5.80;;;20.80;99.90;;;;;;5033179;28;20566;-46
2022/12/08 11:39:54;;;;;;;9.63;6.28;;;20.80;99.90;;;;;;5033046;28;20040;-46
2022/12/08 11:42:25;;;;;;;14.18;6.90;;;20.80;99.90;;;;;;5033108;28;20060;-46
2022/12/08 11:44:58;;;;;;;10.93;6.82;;;20.80;99.90;;;;;;5033003;28;20040;-46
2022/12/08 11:47:29;;;;;;;9.25;6.10;;;20.80;99.90;;;;;;5032953;28;20036;-46
2022/12/08 11:50:15;;;;;;;11.65;7.00;;;20.80;99.90;;;;;;5033132;28;20427;-46
2022/12/08 11:52:49;;;;;;;11.48;6.90;;;20.80;99.90;;;;;;5032880;28;20352;-46
2022/12/08 11:55:33;;;;;;;15.13;7.40;;;20.80;99.90;;;;;;5032849;28;20013;-46
2022/12/08 11:58:10;;;;;;;11.80;7.03;;;20.80;99.90;;;;;;5032941;28;20472;-47
2022/12/08 12:00:36;;;;;;;24.88;9.35;;;20.80;99.90;;;;;;5032494;28;20384;-46
2022/12/08 12:03:14;;;;;;;12.05;7.43;;;20.80;99.90;;;;;;5032625;28;20052;-46
2022/12/08 12:05:56;;;;;;;11.00;7.35;;;20.80;99.90;;;;;;5032711;28;20442;-46
2022/12/08 12:08:43;;;;;;;12.88;8.50;;;20.80;99.90;;;;;;5032453;28;20426;-45
2022/12/08 12:11:12;;;;;;;16.10;8.80;;;20.80;99.90;;;;;;5025900;28;20033;-45
2022/12/08 12:13:37;;;;;;;12.25;8.75;;;20.80;99.90;;;;;;5021111;28;20029;-45
2022/12/08 12:16:30;;;;;;;16.25;9.60;;;20.80;99.90;;;;;;5028898;28;20108;-45
2022/12/08 12:19:00;;;;;;;14.13;9.25;;;20.80;99.90;;;;;;5029898;28;20367;-46
2022/12/08 12:21:33;;;;;;;16.73;9.15;;;20.80;99.90;;;;;;5030600;28;20120;-44
2022/12/08 12:24:30;;;;;;;16.17;8.75;;;20.80;99.90;;;;;;5012517;28;20383;-45
2022/12/08 12:27:20;;;;;;;13.85;9.38;;;20.80;99.90;;;;;;5031239;28;20025;-45
2022/12/08 12:30:01;;;;;;;17.33;9.88;;;20.90;99.90;;;;;;5029350;28;20060;-44
2022/12/08 12:32:50;;;;;;;14.93;8.75;;;20.90;99.90;;;;;;4994664;28;20030;-45
2022/12/08 12:35:26;;;;;;;15.43;9.80;;;20.90;99.90;;;;;;5021955;28;20036;-45
2022/12/08 12:37:58;;;;;;;14.82;10.30;;;20.90;99.90;;;;;;5030618;28;20391;-46
2022/12/08 12:40:26;;;;;;;14.63;9.77;;;20.90;99.90;;;;;;5031290;28;20029;-45
2022/12/08 12:42:55;;;;;;;12.00;8.63;;;20.90;99.90;;;;;;5032135;28;20031;-45
2022/12/08 12:45:20;;;;;;;14.38;8.75;;;20.90;99.90;;;;;;5031864;28;20483;-45
2022/12/08 12:48:18;;;;;;;14.52;9.30;;;21.00;99.90;;;;;;5031936;28;20037;-46
2022/12/08 12:50:48;;;;;;;15.43;9.10;;;21.00;99.90;;;;;;5031843;28;20057;-46
2022/12/08 12:53:20;;;;;;;16.80;10.15;;;21.00;99.90;;;;;;5032030;28;20025;-46
2022/12/08 12:56:02;;;;;;;15.85;8.85;;;21.00;99.90;;;;;;5031964;28;20096;-46
2022/12/08 12:58:31;;;;;;;14.43;9.20;;;21.00;99.90;;;;;;5031937;28;20030;-46
2022/12/08 13:01:19;;;;;;;15.98;10.00;;;21.10;99.90;;;;;;5030833;28;20044;-45